createdAt,value
2022-09-21T00:01:33.583Z,19.20
2022-09-21T00:04:04.476Z,19.10
2022-09-21T00:06:34.562Z,19.20
2022-09-21T00:09:04.305Z,19.20
2022-09-21T00:11:33.706Z,19.20
2022-09-21T00:14:04.783Z,19.00
2022-09-21T00:16:32.996Z,19.00
2022-09-21T00:19:02.577Z,19.10
2022-09-21T00:21:30.696Z,19.10
2022-09-21T00:23:59.806Z,19.00
2022-09-21T00:26:28.089Z,18.90
2022-09-21T00:28:57.695Z,18.80
2022-09-21T00:31:26.654Z,18.80
2022-09-21T00:33:54.860Z,18.80
2022-09-21T00:36:25.547Z,18.80
2022-09-21T00:38:55.586Z,18.80
2022-09-21T00:41:24.145Z,18.80
2022-09-21T00:44:18.944Z,18.70
2022-09-21T00:46:49.456Z,18.60
2022-09-21T00:49:18.316Z,18.50
2022-09-21T00:51:49.415Z,18.40
2022-09-21T00:54:21.567Z,18.40
2022-09-21T00:56:49.544Z,18.30
2022-09-21T00:59:21.643Z,18.40
2022-09-21T01:01:51.637Z,18.20
2022-09-21T01:04:19.986Z,18.10
2022-09-21T01:06:50.746Z,18.10
2022-09-21T01:09:19.853Z,18.10
2022-09-21T01:12:01.848Z,18.10
2022-09-21T01:14:52.367Z,18.10
2022-09-21T01:17:31.388Z,18.10
2022-09-21T01:20:37.687Z,18.00
2022-09-21T01:23:31.548Z,18.00
2022-09-21T01:26:06.355Z,18.00
2022-09-21T01:28:53.437Z,18.00
2022-09-21T01:31:25.396Z,18.00
2022-09-21T01:33:58.446Z,18.00
2022-09-21T01:36:31.096Z,18.10
2022-09-21T01:39:03.575Z,18.10
2022-09-21T01:41:33.187Z,18.00
2022-09-21T01:44:10.286Z,18.00
2022-09-21T01:46:38.886Z,17.90
2022-09-21T01:49:11.887Z,17.90
2022-09-21T01:51:44.387Z,17.80
2022-09-21T01:54:15.325Z,17.80
2022-09-21T01:56:50.588Z,17.70
2022-09-21T01:59:27.597Z,17.60
2022-09-21T02:01:58.989Z,17.60
2022-09-21T02:04:27.473Z,17.70
2022-09-21T02:06:55.889Z,17.80
2022-09-21T02:09:25.484Z,17.80
2022-09-21T02:11:54.107Z,17.70
2022-09-21T02:14:25.568Z,17.70
2022-09-21T02:17:06.377Z,17.60
2022-09-21T02:19:41.908Z,17.50
2022-09-21T02:22:14.846Z,17.40
2022-09-21T02:24:45.255Z,17.50
2022-09-21T02:27:25.095Z,17.40
2022-09-21T02:30:03.587Z,17.30
2022-09-21T02:32:38.255Z,17.30
2022-09-21T02:37:56.286Z,17.30
2022-09-21T02:40:33.172Z,17.30
2022-09-21T02:43:03.746Z,17.20
2022-09-21T02:45:38.476Z,17.20
2022-09-21T02:48:12.434Z,17.10
2022-09-21T02:50:45.367Z,17.20
2022-09-21T02:53:15.857Z,17.20
2022-09-21T02:55:45.776Z,17.20
2022-09-21T02:58:16.956Z,17.20
2022-09-21T03:00:47.186Z,17.10
2022-09-21T03:03:20.336Z,17.20
2022-09-21T03:05:50.925Z,17.10
2022-09-21T03:08:18.866Z,17.00
2022-09-21T03:10:47.868Z,16.90
2022-09-21T03:13:15.627Z,16.90
2022-09-21T03:15:44.077Z,16.90
2022-09-21T03:18:13.974Z,16.80
2022-09-21T03:20:48.114Z,16.90
2022-09-21T03:23:17.479Z,17.00
2022-09-21T03:25:49.066Z,16.90
2022-09-21T03:28:17.047Z,17.00
2022-09-21T03:30:45.041Z,16.90
2022-09-21T03:33:14.555Z,16.90
2022-09-21T03:35:43.533Z,16.80
2022-09-21T03:38:11.878Z,16.70
2022-09-21T03:40:39.796Z,16.60
2022-09-21T03:43:07.806Z,16.60
2022-09-21T03:45:35.527Z,16.60
2022-09-21T03:48:03.448Z,16.60
2022-09-21T03:50:33.027Z,16.60
2022-09-21T03:53:00.837Z,16.60
2022-09-21T03:55:30.016Z,16.50
2022-09-21T03:57:57.837Z,16.50
2022-09-21T04:00:25.654Z,16.40
2022-09-21T04:02:56.248Z,16.40
2022-09-21T04:05:24.755Z,16.30
2022-09-21T04:07:56.584Z,16.30
2022-09-21T04:10:29.626Z,16.30
2022-09-21T04:12:58.896Z,16.30
2022-09-21T04:15:27.175Z,16.40
2022-09-21T04:17:55.856Z,16.30
2022-09-21T04:20:24.367Z,16.40
2022-09-21T04:22:54.185Z,16.40
2022-09-21T04:25:22.540Z,16.60
2022-09-21T04:27:51.083Z,16.50
2022-09-21T04:30:19.444Z,16.50
2022-09-21T04:32:47.506Z,16.50
2022-09-21T04:35:15.834Z,16.60
2022-09-21T04:37:44.067Z,16.50
2022-09-21T04:40:13.822Z,16.40
2022-09-21T04:42:42.117Z,16.30
2022-09-21T04:45:11.456Z,16.30
2022-09-21T04:47:39.426Z,16.30
2022-09-21T04:50:08.572Z,16.20
2022-09-21T04:52:36.893Z,16.20
2022-09-21T04:55:05.806Z,16.20
2022-09-21T04:57:36.024Z,16.20
2022-09-21T05:00:05.725Z,16.20
2022-09-21T05:02:33.969Z,16.10
2022-09-21T05:05:01.951Z,16.30
2022-09-21T05:07:30.062Z,16.20
2022-09-21T05:10:04.186Z,16.10
2022-09-21T05:12:32.901Z,16.10
2022-09-21T05:15:02.774Z,16.10
2022-09-21T05:17:30.915Z,16.10
2022-09-21T05:19:59.023Z,16.10
2022-09-21T05:22:28.178Z,16.00
2022-09-21T05:24:56.223Z,16.00
2022-09-21T05:27:24.396Z,16.00
2022-09-21T05:29:53.396Z,16.00
2022-09-21T05:32:28.391Z,16.10
2022-09-21T05:35:06.847Z,16.20
2022-09-21T05:37:48.812Z,16.10
2022-09-21T05:40:17.724Z,16.10
2022-09-21T05:42:46.510Z,16.10
2022-09-21T05:45:17.296Z,16.10
2022-09-21T05:47:56.215Z,16.10
2022-09-21T05:50:34.463Z,16.10
2022-09-21T05:53:13.502Z,16.10
2022-09-21T05:55:50.122Z,16.30
2022-09-21T06:01:03.776Z,16.30
2022-09-21T06:03:36.530Z,16.20
2022-09-21T06:06:04.894Z,16.30
2022-09-21T06:11:01.056Z,16.40
2022-09-21T06:13:29.023Z,16.40
2022-09-21T06:15:57.332Z,16.50
2022-09-21T06:18:25.414Z,16.60
2022-09-21T06:20:54.898Z,16.60
2022-09-21T06:23:23.077Z,16.60
2022-09-21T06:25:57.547Z,16.70
2022-09-21T06:28:28.479Z,16.80
2022-09-21T06:30:57.517Z,16.80
2022-09-21T06:33:25.868Z,16.80
2022-09-21T06:35:56.880Z,16.90
2022-09-21T06:38:25.789Z,17.00
2022-09-21T06:40:54.381Z,17.10
2022-09-21T06:43:22.931Z,17.20
2022-09-21T06:45:54.812Z,17.30
2022-09-21T06:48:23.171Z,17.30
2022-09-21T06:50:51.511Z,17.40
2022-09-21T06:53:21.329Z,17.60
2022-09-21T06:55:49.640Z,17.70
2022-09-21T06:58:17.614Z,17.80
2022-09-21T07:00:46.205Z,17.90
2022-09-21T07:03:14.582Z,18.00
2022-09-21T07:05:46.737Z,18.20
2022-09-21T07:11:04.746Z,18.40
2022-09-21T07:13:33.111Z,18.50
2022-09-21T07:16:06.327Z,18.50
2022-09-21T07:18:42.539Z,18.60
2022-09-21T07:21:12.098Z,18.70
2022-09-21T07:23:40.007Z,18.80
2022-09-21T07:26:12.147Z,18.90
2022-09-21T07:28:40.582Z,18.90
2022-09-21T07:31:09.500Z,19.00
2022-09-21T07:33:38.246Z,19.10
2022-09-21T07:36:10.697Z,19.20
2022-09-21T07:38:40.178Z,19.30
2022-09-21T07:41:10.845Z,19.40
2022-09-21T07:43:42.090Z,19.50
2022-09-21T07:46:11.803Z,19.60
2022-09-21T07:48:41.218Z,19.70
2022-09-21T07:51:11.403Z,19.80
2022-09-21T07:53:41.273Z,19.90
2022-09-21T07:56:12.483Z,20.00
2022-09-21T07:58:59.498Z,20.00
2022-09-21T08:01:28.776Z,20.10
2022-09-21T08:03:58.843Z,20.10
2022-09-21T08:06:28.363Z,20.20
2022-09-21T08:08:58.054Z,20.20
2022-09-21T08:14:23.794Z,20.20
2022-09-21T08:16:54.452Z,20.30
2022-09-21T08:19:26.015Z,20.30
2022-09-21T08:21:57.658Z,20.30
2022-09-21T08:24:28.764Z,20.40
2022-09-21T08:26:57.144Z,20.40
2022-09-21T08:29:26.696Z,20.50
2022-09-21T08:31:54.725Z,20.60
2022-09-21T08:36:57.023Z,20.60
2022-09-21T08:39:24.794Z,20.70
2022-09-21T08:42:02.992Z,20.70
2022-09-21T08:44:37.852Z,20.70
2022-09-21T08:47:11.875Z,20.90
2022-09-21T08:49:42.212Z,21.00
2022-09-21T08:52:15.832Z,21.10
2022-09-21T08:54:51.996Z,21.10
2022-09-21T08:57:20.674Z,21.10
2022-09-21T08:59:50.954Z,21.10
2022-09-21T09:02:35.724Z,21.20
2022-09-21T09:05:13.143Z,21.30
2022-09-21T09:08:09.937Z,21.40
2022-09-21T09:10:39.744Z,21.40
2022-09-21T09:13:30.138Z,21.40
2022-09-21T09:16:07.391Z,21.40
2022-09-21T09:18:43.871Z,21.50
2022-09-21T09:21:24.896Z,21.40
2022-09-21T09:24:00.649Z,21.40
2022-09-21T09:26:34.359Z,21.60
2022-09-21T09:29:09.492Z,21.70
2022-09-21T09:31:39.896Z,21.70
2022-09-21T09:34:13.044Z,21.70
2022-09-21T09:37:00.524Z,21.80
2022-09-21T09:39:31.124Z,21.90
2022-09-21T09:42:20.314Z,22.00
2022-09-21T09:45:01.185Z,22.20
2022-09-21T09:47:43.751Z,22.30
2022-09-21T09:50:14.588Z,22.30
2022-09-21T09:52:43.946Z,22.30
2022-09-21T09:55:20.328Z,22.20
2022-09-21T09:57:49.737Z,22.20
2022-09-21T10:00:20.234Z,22.40
2022-09-21T10:02:51.530Z,22.50
2022-09-21T10:05:25.296Z,22.60
2022-09-21T10:07:53.637Z,22.70
2022-09-21T10:10:41.681Z,22.70
2022-09-21T10:13:16.928Z,22.70
2022-09-21T10:15:49.695Z,22.90
2022-09-21T10:18:24.937Z,22.90
2022-09-21T10:21:03.253Z,23.00
2022-09-21T10:23:43.097Z,23.00
2022-09-21T10:26:34.917Z,23.10
2022-09-21T10:31:57.977Z,23.10
2022-09-21T10:37:03.753Z,23.20
2022-09-21T10:39:32.465Z,23.50
2022-09-21T10:42:06.421Z,23.60
2022-09-21T10:44:40.922Z,23.70
2022-09-21T10:47:18.845Z,23.70
2022-09-21T10:49:51.354Z,23.90
2022-09-21T10:52:22.482Z,23.80
2022-09-21T10:54:54.311Z,23.80
2022-09-21T10:57:24.899Z,23.70
2022-09-21T10:59:53.619Z,23.70
2022-09-21T11:02:46.702Z,23.60
2022-09-21T11:05:24.208Z,23.70
2022-09-21T11:07:59.945Z,23.80
2022-09-21T11:10:34.921Z,24.10
2022-09-21T11:13:24.289Z,23.90
2022-09-21T11:15:58.511Z,24.10
2022-09-21T11:18:37.985Z,24.00
2022-09-21T11:21:20.400Z,24.10
2022-09-21T11:24:00.119Z,23.90
2022-09-21T11:29:09.185Z,24.10
2022-09-21T11:31:51.433Z,24.40
2022-09-21T11:34:44.658Z,24.60
2022-09-21T11:37:24.070Z,24.50
2022-09-21T11:40:07.657Z,24.50
2022-09-21T11:42:49.982Z,24.70
2022-09-21T11:45:34.735Z,25.10
2022-09-21T11:48:17.142Z,25.20
2022-09-21T11:50:55.487Z,25.00
2022-09-21T11:53:38.574Z,25.00
2022-09-21T11:56:25.529Z,25.00
2022-09-21T11:59:04.235Z,25.00
2022-09-21T12:01:45.972Z,25.00
2022-09-21T12:04:32.886Z,25.20
2022-09-21T12:07:14.167Z,25.20
2022-09-21T12:10:07.502Z,25.30
2022-09-21T12:12:45.526Z,25.40
2022-09-21T12:15:22.567Z,25.70
2022-09-21T12:18:03.684Z,25.80
2022-09-21T12:20:40.850Z,25.70
2022-09-21T12:23:17.104Z,25.80
2022-09-21T12:25:52.280Z,25.80
2022-09-21T12:28:26.344Z,25.40
2022-09-21T12:31:00.626Z,25.20
2022-09-21T12:33:37.385Z,25.20
2022-09-21T12:36:11.715Z,25.00
2022-09-21T12:38:44.953Z,24.90
2022-09-21T12:41:19.174Z,25.20
2022-09-21T12:43:53.852Z,25.30
2022-09-21T12:46:24.807Z,25.40
2022-09-21T12:48:54.479Z,25.20
2022-09-21T12:51:29.675Z,25.30
2022-09-21T12:54:01.479Z,24.90
2022-09-21T12:56:44.082Z,24.70
2022-09-21T12:59:23.072Z,24.60
2022-09-21T13:02:04.500Z,24.80
2022-09-21T13:04:43.572Z,25.00
2022-09-21T13:07:52.262Z,25.20
2022-09-21T13:10:32.302Z,25.30
2022-09-21T13:13:04.160Z,25.20
2022-09-21T13:15:41.390Z,25.20
2022-09-21T13:18:19.372Z,24.90
2022-09-21T13:20:48.139Z,24.70
2022-09-21T13:23:20.621Z,24.60
2022-09-21T13:25:51.021Z,24.80
2022-09-21T13:28:24.430Z,25.10
2022-09-21T13:31:40.033Z,25.00
2022-09-21T13:34:23.604Z,25.10
2022-09-21T13:37:25.631Z,25.40
2022-09-21T13:40:39.255Z,25.60
2022-09-21T13:43:39.018Z,25.70
2022-09-21T13:46:08.808Z,25.60
2022-09-21T13:48:37.825Z,25.80
2022-09-21T13:51:10.395Z,25.80
2022-09-21T13:53:42.359Z,25.80
2022-09-21T13:56:19.257Z,25.40
2022-09-21T13:58:52.440Z,25.20
2022-09-21T14:01:45.629Z,25.20
2022-09-21T14:04:24.222Z,25.60
2022-09-21T14:06:54.749Z,26.00
2022-09-21T14:09:28.791Z,26.50
2022-09-21T14:12:02.218Z,26.70
2022-09-21T14:14:33.830Z,26.80
2022-09-21T14:17:05.449Z,27.00
2022-09-21T14:20:00.866Z,26.90
2022-09-21T14:22:49.431Z,26.90
2022-09-21T14:25:29.488Z,27.10
2022-09-21T14:28:11.603Z,27.10
2022-09-21T14:30:41.872Z,27.30
2022-09-21T14:33:31.007Z,27.70
2022-09-21T14:36:02.450Z,27.80
2022-09-21T14:38:35.541Z,27.90
2022-09-21T14:41:07.907Z,28.00
2022-09-21T14:43:38.032Z,28.20
2022-09-21T14:46:36.411Z,28.40
2022-09-21T14:49:20.256Z,28.50
2022-09-21T14:52:04.344Z,28.80
2022-09-21T14:54:48.947Z,29.00
2022-09-21T14:57:35.689Z,29.10
2022-09-21T15:00:14.620Z,29.00
2022-09-21T15:02:45.243Z,29.20
2022-09-21T15:05:31.701Z,29.40
2022-09-21T15:08:56.733Z,29.90
2022-09-21T15:11:29.449Z,29.90
2022-09-21T15:14:26.567Z,30.10
2022-09-21T15:16:54.732Z,30.00
2022-09-21T15:19:24.939Z,30.20
2022-09-21T15:21:56.145Z,30.30
2022-09-21T15:24:27.421Z,30.60
2022-09-21T15:27:04.725Z,30.80
2022-09-21T15:29:34.264Z,30.90
2022-09-21T15:32:02.818Z,31.00
2022-09-21T15:34:31.385Z,31.00
2022-09-21T15:37:12.745Z,30.50
2022-09-21T15:39:43.995Z,29.70
2022-09-21T15:42:20.280Z,28.70
2022-09-21T15:44:51.034Z,27.90
2022-09-21T15:47:22.671Z,27.20
2022-09-21T15:49:54.250Z,26.70
2022-09-21T15:52:29.807Z,26.20
2022-09-21T15:55:00.805Z,25.80
2022-09-21T15:57:39.039Z,25.40
2022-09-21T16:00:19.363Z,25.00
2022-09-21T16:03:19.102Z,24.90
2022-09-21T16:05:49.378Z,24.70
2022-09-21T16:08:27.055Z,24.50
2022-09-21T16:11:12.836Z,24.60
2022-09-21T16:14:00.543Z,24.50
2022-09-21T16:16:29.007Z,24.30
2022-09-21T16:19:00.431Z,24.30
2022-09-21T16:21:34.254Z,24.20
2022-09-21T16:24:18.305Z,24.10
2022-09-21T16:26:58.397Z,24.20
2022-09-21T16:29:29.788Z,24.00
2022-09-21T16:32:28.274Z,23.90
2022-09-21T16:35:35.304Z,23.90
2022-09-21T16:38:04.176Z,23.80
2022-09-21T16:40:34.334Z,23.50
2022-09-21T16:43:05.765Z,23.40
2022-09-21T16:45:35.537Z,23.30
2022-09-21T16:48:08.235Z,23.20
2022-09-21T16:50:36.935Z,23.10
2022-09-21T16:53:05.664Z,23.10
2022-09-21T16:55:35.835Z,23.10
2022-09-21T16:58:04.424Z,23.10
2022-09-21T17:00:39.532Z,22.90
2022-09-21T17:03:08.064Z,22.90
2022-09-21T17:05:36.384Z,22.90
2022-09-21T17:08:05.145Z,23.00
2022-09-21T17:10:39.703Z,22.90
2022-09-21T17:13:09.736Z,22.80
2022-09-21T17:15:44.207Z,22.80
2022-09-21T17:18:13.745Z,22.80
2022-09-21T17:20:44.118Z,22.80
2022-09-21T17:23:13.147Z,22.70
2022-09-21T17:25:43.504Z,22.50
2022-09-21T17:28:15.856Z,22.50
2022-09-21T17:30:46.836Z,22.50
2022-09-21T17:33:18.259Z,22.30
2022-09-21T17:35:47.124Z,22.40
2022-09-21T17:38:15.795Z,22.30
2022-09-21T17:40:47.141Z,22.20
2022-09-21T17:43:33.584Z,22.10
2022-09-21T17:46:08.994Z,22.00
2022-09-21T17:48:41.595Z,21.90
2022-09-21T17:51:33.566Z,21.90
2022-09-21T17:54:03.215Z,21.80
2022-09-21T17:56:41.506Z,21.70
2022-09-21T17:59:26.595Z,21.60
2022-09-21T18:01:59.823Z,21.60
2022-09-21T18:04:30.884Z,21.50
2022-09-21T18:07:00.105Z,21.60
2022-09-21T18:09:29.127Z,21.60
2022-09-21T18:12:39.905Z,21.50
2022-09-21T18:15:23.430Z,21.50
2022-09-21T18:18:07.785Z,21.50
2022-09-21T18:20:48.434Z,21.40
2022-09-21T18:23:23.388Z,21.30
2022-09-21T18:25:56.831Z,21.30
2022-09-21T18:28:38.265Z,21.20
2022-09-21T18:31:29.876Z,21.20
2022-09-21T18:34:13.501Z,21.20
2022-09-21T18:36:49.030Z,21.20
2022-09-21T18:39:28.855Z,21.10
2022-09-21T18:42:26.484Z,21.10
2022-09-21T18:44:58.984Z,21.10
2022-09-21T18:47:35.985Z,21.10
2022-09-21T18:50:16.227Z,21.10
2022-09-21T18:52:56.257Z,21.10
2022-09-21T18:55:27.816Z,21.10
2022-09-21T18:57:57.784Z,21.00
2022-09-21T19:03:18.192Z,20.90
2022-09-21T19:05:58.344Z,20.90
2022-09-21T19:08:35.626Z,20.80
2022-09-21T19:11:12.110Z,20.70
2022-09-21T19:13:48.146Z,20.70
2022-09-21T19:16:25.838Z,20.70
2022-09-21T19:19:09.805Z,20.60
2022-09-21T19:21:46.587Z,20.70
2022-09-21T19:24:24.401Z,20.60
2022-09-21T19:27:08.757Z,20.50
2022-09-21T19:29:46.666Z,20.50
2022-09-21T19:32:18.515Z,20.60
2022-09-21T19:34:50.865Z,20.50
2022-09-21T19:37:20.270Z,20.60
2022-09-21T19:39:49.406Z,20.60
2022-09-21T19:45:09.458Z,20.30
2022-09-21T19:47:45.175Z,20.20
2022-09-21T19:50:18.463Z,20.10
2022-09-21T19:52:48.230Z,19.90
2022-09-21T19:55:38.324Z,20.00
2022-09-21T19:58:26.205Z,20.00
2022-09-21T20:00:56.334Z,20.00
2022-09-21T20:03:31.694Z,19.90
2022-09-21T20:06:11.862Z,19.80
2022-09-21T20:08:44.347Z,19.70
2022-09-21T20:11:19.552Z,19.70
2022-09-21T20:14:02.183Z,19.80
2022-09-21T20:16:37.578Z,19.70
2022-09-21T20:19:13.643Z,19.60
2022-09-21T20:21:49.452Z,19.60
2022-09-21T20:24:25.069Z,19.50
2022-09-21T20:26:54.325Z,19.50
2022-09-21T20:31:54.107Z,19.60
2022-09-21T20:36:58.486Z,19.50
2022-09-21T20:39:27.431Z,19.60
2022-09-21T20:41:55.892Z,19.40
2022-09-21T20:44:24.132Z,19.40
2022-09-21T20:46:52.457Z,19.50
2022-09-21T20:49:20.892Z,19.50
2022-09-21T20:51:49.320Z,19.60
2022-09-21T20:54:19.077Z,19.50
2022-09-21T20:56:48.162Z,19.50
2022-09-21T20:59:16.773Z,19.50
2022-09-21T21:01:45.245Z,19.40
2022-09-21T21:04:14.456Z,19.30
2022-09-21T21:06:42.962Z,19.30
2022-09-21T21:09:11.409Z,19.30
2022-09-21T21:11:41.281Z,19.30
2022-09-21T21:14:09.624Z,19.10
2022-09-21T21:16:37.996Z,19.20
2022-09-21T21:19:06.431Z,19.10
2022-09-21T21:21:34.993Z,19.20
2022-09-21T21:24:21.762Z,19.10
2022-09-21T21:27:02.600Z,19.10
2022-09-21T21:29:31.957Z,19.00
2022-09-21T21:32:00.761Z,19.00
2022-09-21T21:34:29.285Z,19.00
2022-09-21T21:37:00.614Z,19.10
2022-09-21T21:39:28.811Z,19.10
2022-09-21T21:41:58.613Z,19.00
2022-09-21T21:44:27.072Z,19.00
2022-09-21T21:47:10.038Z,19.00
2022-09-21T21:49:45.736Z,19.00
2022-09-21T21:52:14.151Z,19.00
2022-09-21T21:54:42.272Z,19.00
2022-09-21T21:57:14.171Z,18.90
2022-09-21T21:59:43.523Z,18.80
2022-09-21T22:02:11.753Z,18.90
2022-09-21T22:04:40.192Z,19.00
2022-09-21T22:07:08.493Z,19.00
2022-09-21T22:09:37.122Z,18.90
2022-09-21T22:12:05.524Z,18.90
2022-09-21T22:14:35.314Z,19.00
2022-09-21T22:17:03.513Z,18.90
2022-09-21T22:19:32.111Z,18.90
2022-09-21T22:22:00.430Z,18.80
2022-09-21T22:24:28.564Z,18.80
2022-09-21T22:26:57.213Z,18.70
2022-09-21T22:29:25.382Z,18.70
2022-09-21T22:31:55.935Z,18.60
2022-09-21T22:34:24.171Z,18.60
2022-09-21T22:36:52.371Z,18.50
2022-09-21T22:39:20.574Z,18.60
2022-09-21T22:41:48.701Z,18.50
2022-09-21T22:44:16.950Z,18.50
2022-09-21T22:46:45.092Z,18.50
2022-09-21T22:49:14.857Z,18.30
2022-09-21T22:51:43.101Z,18.20
2022-09-21T22:54:11.691Z,18.30
2022-09-21T22:56:39.961Z,18.30
2022-09-21T22:59:08.670Z,18.30
2022-09-21T23:01:37.925Z,18.20
2022-09-21T23:04:08.197Z,18.20
2022-09-21T23:06:39.552Z,18.20
2022-09-21T23:09:14.590Z,18.20
2022-09-21T23:11:44.340Z,18.20
2022-09-21T23:14:14.113Z,18.10
2022-09-21T23:16:43.648Z,18.20
2022-09-21T23:19:16.051Z,18.10
2022-09-21T23:21:47.192Z,18.00
2022-09-21T23:24:15.573Z,18.00
2022-09-21T23:26:44.652Z,17.90
2022-09-21T23:29:15.129Z,17.90
2022-09-21T23:31:46.040Z,17.80
2022-09-21T23:34:15.322Z,17.80
2022-09-21T23:36:45.807Z,17.80
2022-09-21T23:39:15.919Z,17.70
2022-09-21T23:41:44.813Z,17.60
2022-09-21T23:44:13.480Z,17.50
2022-09-21T23:46:42.489Z,17.60
2022-09-21T23:49:10.725Z,17.60
2022-09-21T23:51:39.131Z,17.50
2022-09-21T23:54:08.933Z,17.50
2022-09-21T23:56:37.221Z,17.40
2022-09-21T23:59:05.854Z,17.50
